Time;durP1;ratioP1;P1;durP2;ratioP2;P2;SDS_P1;SDS_P2;PMS_P1;PMS_P2;Temp;Humidity;BMP_temperature;BMP_pressure;BME280_temperature;BME280_humidity;BME280_pressure;Samples;Min_cycle;Max_cycle;Signal;HPM_P1;HPM_P2
2023/06/01 00:01:12;;;;;;;40.10;35.30;;;435.70;2355.20;;;;;;5028700;28;20459;-56
2023/06/01 00:03:39;;;;;;;40.97;34.80;;;435.80;2355.20;;;;;;5028598;28;20025;-59
2023/06/01 00:06:06;;;;;;;42.08;35.08;;;435.80;2355.20;;;;;;5028252;28;20095;-54
2023/06/01 00:08:32;;;;;;;45.20;36.38;;;435.80;2355.20;;;;;;5019184;28;20022;-55
2023/06/01 00:10:57;;;;;;;46.05;37.38;;;435.70;2355.20;;;;;;5012641;28;20048;-56
2023/06/01 00:13:23;;;;;;;44.50;37.72;;;435.80;2355.20;;;;;;5018846;28;20460;-56
2023/06/01 00:15:49;;;;;;;41.85;35.10;;;435.70;2355.20;;;;;;5014476;28;20460;-61
2023/06/01 00:18:15;;;;;;;47.10;36.40;;;435.70;2355.20;;;;;;5023436;28;20029;-54
2023/06/01 00:20:41;;;;;;;45.17;33.20;;;435.80;2355.20;;;;;;5028944;28;20037;-60
2023/06/01 00:23:08;;;;;;;46.03;35.15;;;435.70;2355.20;;;;;;5024522;28;20110;-61
2023/06/01 00:25:34;;;;;;;50.15;38.53;;;435.60;2355.20;;;;;;5019069;28;20037;-57
2023/06/01 00:28:02;;;;;;;46.92;35.80;;;435.70;2355.20;;;;;;5024310;28;20121;-59
2023/06/01 00:30:28;;;;;;;46.20;37.05;;;435.70;2355.20;;;;;;5022064;28;20037;-54
2023/06/01 00:32:54;;;;;;;43.40;35.35;;;435.70;2355.20;;;;;;5009093;28;20026;-56
2023/06/01 00:35:20;;;;;;;40.30;34.05;;;435.60;2355.20;;;;;;5027711;28;20029;-57
2023/06/01 00:37:45;;;;;;;43.92;34.95;;;435.60;2355.20;;;;;;5028689;28;20045;-54
2023/06/01 00:40:11;;;;;;;47.72;36.03;;;435.50;2355.20;;;;;;5027851;28;20038;-55
2023/06/01 00:42:37;;;;;;;43.63;34.80;;;435.60;2355.20;;;;;;5028065;28;20029;-57
2023/06/01 00:45:03;;;;;;;46.25;33.58;;;435.60;2355.20;;;;;;5020962;28;20351;-54
2023/06/01 00:47:29;;;;;;;47.95;34.53;;;435.60;2355.20;;;;;;5020468;28;20108;-62
2023/06/01 00:49:55;;;;;;;44.50;32.85;;;435.60;2355.20;;;;;;5010283;28;20523;-57
2023/06/01 00:52:22;;;;;;;40.25;31.40;;;435.90;2355.20;;;;;;5020191;28;20029;-55
2023/06/01 00:54:47;;;;;;;41.05;31.70;;;435.60;2355.20;;;;;;5009555;28;20025;-56
2023/06/01 00:57:13;;;;;;;38.10;29.83;;;435.70;2355.20;;;;;;5021182;28;20383;-56
2023/06/01 00:59:39;;;;;;;40.00;29.60;;;435.70;1971.20;;;;;;5009254;28;20487;-57
2023/06/01 01:02:08;;;;;;;35.65;29.67;;;435.80;2355.20;;;;;;5024772;28;20083;-54
2023/06/01 01:04:34;;;;;;;42.08;31.30;;;435.70;2355.20;;;;;;5028176;28;20475;-55
2023/06/01 01:07:03;;;;;;;36.15;29.70;;;435.70;2355.20;;;;;;5028432;28;20124;-63
2023/06/01 01:09:47;;;;;;;42.17;32.10;;;435.70;2355.20;;;;;;5016111;28;20112;-54
2023/06/01 01:12:32;;;;;;;38.15;31.08;;;435.60;2355.20;;;;;;5028420;28;20514;-56
2023/06/01 01:15:01;;;;;;;39.25;30.27;;;435.90;2355.20;;;;;;5031796;28;20021;-55
2023/06/01 01:17:33;;;;;;;42.92;31.73;;;435.60;2355.20;;;;;;5032043;28;20022;-55
2023/06/01 01:20:08;;;;;;;39.35;32.53;;;435.60;2355.20;;;;;;5032071;28;20467;-55
2023/06/01 01:23:01;;;;;;;36.42;29.77;;;435.60;2355.20;;;;;;5031921;28;20021;-55
2023/06/01 01:25:47;;;;;;;41.20;32.30;;;435.60;2355.20;;;;;;5031969;28;20487;-55
2023/06/01 01:28:34;;;;;;;43.45;31.23;;;435.50;2355.20;;;;;;5020028;28;20033;-56
2023/06/01 01:31:03;;;;;;;38.30;31.70;;;435.50;2355.20;;;;;;5031784;28;20034;-55
2023/06/01 01:33:31;;;;;;;37.55;31.00;;;435.30;2355.20;;;;;;5031761;28;20022;-60
2023/06/01 01:35:58;;;;;;;34.80;29.05;;;435.30;2355.20;;;;;;5031542;28;20026;-56
2023/06/01 01:38:23;;;;;;;42.28;30.38;;;435.40;2355.20;;;;;;5031580;28;20108;-56
2023/06/01 01:40:52;;;;;;;40.15;32.20;;;435.30;2355.20;;;;;;5031686;28;20137;-58
2023/06/01 01:43:21;;;;;;;34.90;29.38;;;435.20;2355.20;;;;;;5031337;28;20456;-55
2023/06/01 01:45:53;;;;;;;44.13;34.00;;;410.50;2355.20;;;;;;5031264;28;20041;-57
2023/06/01 01:48:37;;;;;;;47.53;34.67;;;410.50;2355.20;;;;;;5031878;28;20025;-60
2023/06/01 01:51:15;;;;;;;41.60;33.35;;;410.30;2355.20;;;;;;5031885;28;20026;-60
2023/06/01 01:53:43;;;;;;;49.55;36.22;;;410.40;2355.20;;;;;;5031741;28;20382;-58
2023/06/01 01:56:09;;;;;;;45.70;35.40;;;410.30;2355.20;;;;;;5031620;28;20074;-57
2023/06/01 01:58:36;;;;;;;46.15;34.83;;;410.30;2355.20;;;;;;5031141;28;20029;-59
2023/06/01 02:01:03;;;;;;;43.92;33.33;;;410.30;2355.20;;;;;;5031163;28;20036;-60
2023/06/01 02:03:28;;;;;;;43.60;34.70;;;410.30;2355.20;;;;;;5031059;28;20022;-58
2023/06/01 02:05:54;;;;;;;43.08;35.85;;;410.30;2355.20;;;;;;5030959;28;20095;-55
2023/06/01 02:08:20;;;;;;;50.55;38.10;;;410.40;2355.20;;;;;;5031256;28;20033;-57
2023/06/01 02:10:46;;;;;;;42.72;33.67;;;410.40;2355.20;;;;;;5030938;28;20034;-55
2023/06/01 02:13:11;;;;;;;45.88;34.20;;;410.40;2355.20;;;;;;5031476;28;20021;-59
2023/06/01 02:15:37;;;;;;;38.13;32.47;;;410.50;2355.20;;;;;;5030778;28;20391;-55
2023/06/01 02:18:03;;;;;;;42.25;34.47;;;410.50;2355.20;;;;;;5030958;28;20072;-59
2023/06/01 02:20:29;;;;;;;46.13;36.10;;;410.50;2355.20;;;;;;5031298;28;20030;-55
2023/06/01 02:22:55;;;;;;;43.40;36.08;;;410.50;2355.20;;;;;;5031088;28;20494;-56
2023/06/01 02:25:21;;;;;;;45.20;35.50;;;410.50;2355.20;;;;;;5029715;28;20727;-58
2023/06/01 02:27:46;;;;;;;38.47;34.28;;;410.50;2355.20;;;;;;5030649;28;20045;-56
2023/06/01 02:30:12;;;;;;;38.00;32.70;;;410.50;2355.20;;;;;;5030651;28;20018;-60
2023/06/01 02:32:38;;;;;;;38.65;30.95;;;410.50;2355.20;;;;;;5030615;28;20049;-54
2023/06/01 02:35:06;;;;;;;41.75;32.97;;;410.50;2355.20;;;;;;5030582;28;20074;-60
2023/06/01 02:37:31;;;;;;;38.60;31.70;;;410.40;2355.20;;;;;;5030484;28;20116;-55
2023/06/01 02:39:57;;;;;;;43.42;32.15;;;410.50;2355.20;;;;;;5030592;28;20120;-55
2023/06/01 02:42:23;;;;;;;41.58;32.53;;;410.50;2355.20;;;;;;5030602;28;20235;-57
2023/06/01 02:44:49;;;;;;;38.67;31.30;;;435.20;2355.20;;;;;;5030699;28;20053;-56
2023/06/01 02:47:16;;;;;;;39.42;31.00;;;435.30;2355.20;;;;;;5030408;28;20053;-57
2023/06/01 02:49:42;;;;;;;39.45;30.83;;;435.40;2355.20;;;;;;5030229;28;20013;-56
2023/06/01 02:52:08;;;;;;;38.10;31.40;;;435.50;2355.20;;;;;;5030723;28;20487;-58
2023/06/01 02:54:33;;;;;;;41.10;29.85;;;435.50;2355.20;;;;;;5030494;28;20018;-55
2023/06/01 02:56:59;;;;;;;35.97;29.38;;;435.60;2355.20;;;;;;5030391;28;20032;-57
2023/06/01 02:59:25;;;;;;;37.28;30.73;;;435.60;2355.20;;;;;;5029969;28;20067;-56
2023/06/01 03:01:50;;;;;;;37.28;30.25;;;435.60;2355.20;;;;;;5030427;28;20060;-60
2023/06/01 03:04:17;;;;;;;38.63;32.42;;;435.60;2355.20;;;;;;5028534;28;20027;-56
2023/06/01 03:06:43;;;;;;;35.70;29.92;;;435.60;2355.20;;;;;;5029744;28;20045;-56
2023/06/01 03:09:15;;;;;;;37.92;30.60;;;435.70;2355.20;;;;;;5029928;28;20025;-56
2023/06/01 03:11:42;;;;;;;30.42;27.13;;;435.70;2355.20;;;;;;5030179;28;20037;-57
2023/06/01 03:14:08;;;;;;;30.98;26.15;;;435.70;2355.20;;;;;;5029522;28;20128;-56
2023/06/01 03:16:34;;;;;;;30.67;26.08;;;435.80;2355.20;;;;;;5029680;28;20053;-57
2023/06/01 03:19:00;;;;;;;36.90;27.90;;;435.70;2355.20;;;;;;5029704;28;20249;-61
2023/06/01 03:21:27;;;;;;;30.35;23.45;;;435.70;2355.20;;;;;;5029763;28;20435;-56
2023/06/01 03:23:53;;;;;;;33.33;25.30;;;435.60;2355.20;;;;;;5029837;28;20113;-56
2023/06/01 03:26:20;;;;;;;30.33;26.40;;;435.60;2355.20;;;;;;5030112;28;20073;-55
2023/06/01 03:28:47;;;;;;;32.35;25.92;;;435.60;2355.20;;;;;;5029639;28;20030;-57
2023/06/01 03:31:12;;;;;;;33.17;25.48;;;435.50;2355.20;;;;;;5029642;28;20400;-60
2023/06/01 03:33:38;;;;;;;36.80;29.55;;;435.50;2355.20;;;;;;5029407;28;20017;-55
2023/06/01 03:36:06;;;;;;;31.92;27.33;;;435.60;2355.20;;;;;;5029151;28;20029;-60
2023/06/01 03:38:32;;;;;;;32.45;26.40;;;435.60;2355.20;;;;;;5029855;28;20103;-55
2023/06/01 03:40:58;;;;;;;35.05;27.85;;;435.80;2355.20;;;;;;5029616;28;20487;-55
2023/06/01 03:43:24;;;;;;;31.35;27.38;;;435.80;2355.20;;;;;;5029129;28;20025;-55
2023/06/01 03:45:49;;;;;;;36.30;28.52;;;435.90;2355.20;;;;;;5029559;28;20472;-55
2023/06/01 03:48:15;;;;;;;36.05;29.42;;;436.10;2355.20;;;;;;5028880;28;20037;-55
2023/06/01 03:50:41;;;;;;;34.17;28.25;;;460.80;2380.80;;;;;;5029697;28;20460;-55
2023/06/01 03:53:07;;;;;;;35.75;29.33;;;460.80;2380.80;;;;;;5028974;28;20025;-56
2023/06/01 03:55:34;;;;;;;35.15;30.67;;;460.90;2380.80;;;;;;5029479;28;20108;-59
2023/06/01 03:58:02;;;;;;;33.65;27.90;;;461.00;2380.80;;;;;;5017448;28;20105;-55
2023/06/01 04:00:28;;;;;;;39.55;28.80;;;461.20;2380.80;;;;;;5027654;28;20029;-55
2023/06/01 04:02:56;;;;;;;32.60;26.02;;;461.30;2380.80;;;;;;5029066;28;20041;-56
2023/06/01 04:05:24;;;;;;;34.25;27.25;;;461.30;2380.80;;;;;;5028970;28;20189;-57
2023/06/01 04:07:52;;;;;;;32.42;26.95;;;461.40;2380.80;;;;;;5029286;28;20033;-56
2023/06/01 04:10:18;;;;;;;35.67;27.08;;;461.60;2380.80;;;;;;5029057;28;20368;-57
2023/06/01 04:12:45;;;;;;;31.20;26.58;;;461.40;2380.80;;;;;;5028865;28;20035;-55
2023/06/01 04:15:12;;;;;;;33.85;27.65;;;461.40;2380.80;;;;;;5029065;28;20029;-59
2023/06/01 04:17:39;;;;;;;35.30;27.08;;;461.20;2380.80;;;;;;5028755;28;20049;-56
2023/06/01 04:20:06;;;;;;;34.10;29.63;;;461.20;2380.80;;;;;;5028967;28;20411;-55
2023/06/01 04:22:38;;;;;;;34.67;26.25;;;461.10;2380.80;;;;;;5028914;28;20045;-56
2023/06/01 04:25:11;;;;;;;32.35;26.63;;;461.00;2380.80;;;;;;5028709;28;20029;-56
2023/06/01 04:27:37;;;;;;;32.00;26.52;;;461.20;2380.80;;;;;;5028682;28;20125;-55
2023/06/01 04:30:09;;;;;;;34.60;26.95;;;461.10;2380.80;;;;;;5028580;28;20105;-55
2023/06/01 04:32:37;;;;;;;32.22;25.77;;;461.20;2380.80;;;;;;5028415;28;20064;-61
2023/06/01 04:35:07;;;;;;;35.47;26.75;;;461.30;2380.80;;;;;;5028706;28;20025;-56
2023/06/01 04:37:39;;;;;;;34.42;26.40;;;461.30;2380.80;;;;;;5028685;28;20022;-55
2023/06/01 04:40:09;;;;;;;28.85;23.17;;;461.50;2380.80;;;;;;5028112;28;20442;-55
2023/06/01 04:42:41;;;;;;;31.20;25.45;;;461.50;2380.80;;;;;;5028677;28;20026;-60
2023/06/01 04:45:09;;;;;;;29.30;24.17;;;461.70;2380.80;;;;;;5027732;28;20519;-55
2023/06/01 04:47:39;;;;;;;32.03;24.85;;;486.40;2380.80;;;;;;5010847;28;20080;-59
2023/06/01 04:50:09;;;;;;;27.83;22.98;;;486.50;2380.80;;;;;;5032501;28;20024;-57
2023/06/01 04:52:40;;;;;;;29.90;22.73;;;486.60;2380.80;;;;;;5032330;28;20025;-61
2023/06/01 04:55:07;;;;;;;30.50;23.58;;;486.60;2380.80;;;;;;5032989;28;20026;-56
2023/06/01 04:57:33;;;;;;;27.63;22.65;;;486.70;2380.80;;;;;;5032454;28;20836;-57
2023/06/01 05:00:00;;;;;;;30.55;22.88;;;486.80;2380.80;;;;;;5032681;28;20080;-55
2023/06/01 05:02:26;;;;;;;31.70;23.02;;;487.00;2380.80;;;;;;5032311;28;20026;-55
2023/06/01 05:04:52;;;;;;;26.85;20.75;;;487.00;2380.80;;;;;;5032610;28;20386;-55
2023/06/01 05:07:18;;;;;;;29.58;21.30;;;487.10;2380.80;;;;;;5032020;28;20052;-55
2023/06/01 05:09:44;;;;;;;25.38;21.98;;;487.30;2380.80;;;;;;5032432;28;20030;-55
2023/06/01 05:12:09;;;;;;;28.13;21.67;;;512.20;2380.80;;;;;;5030277;28;20028;-55
2023/06/01 05:14:35;;;;;;;26.02;21.40;;;512.50;2380.80;;;;;;5020492;28;20057;-55
2023/06/01 05:17:01;;;;;;;23.95;20.45;;;537.60;2406.40;;;;;;5032523;28;20137;-56
2023/06/01 05:19:26;;;;;;;23.92;20.17;;;538.50;2406.40;;;;;;5032110;28;20092;-56
2023/06/01 05:21:52;;;;;;;22.35;18.60;;;564.10;2432.00;;;;;;5032190;28;20068;-55
2023/06/01 05:24:18;;;;;;;20.52;18.38;;;640.10;2432.00;;;;;;5031891;28;20471;-57
2023/06/01 05:26:45;;;;;;;19.52;17.30;;;640.70;2432.00;;;;;;5031786;28;20037;-57
2023/06/01 05:29:11;;;;;;;19.77;17.80;;;665.90;2432.00;;;;;;5031758;28;20025;-56
2023/06/01 05:31:37;;;;;;;19.75;17.58;;;691.70;2432.00;;;;;;5031657;28;20075;-56
2023/06/01 05:34:02;;;;;;;18.35;16.55;;;794.00;2022.40;;;;;;5031806;28;20190;-56
2023/06/01 05:36:28;;;;;;;20.63;18.38;;;794.20;1971.20;;;;;;5031687;28;20030;-56
2023/06/01 05:38:54;;;;;;;17.98;16.17;;;793.60;1971.20;;;;;;5031457;28;20061;-57
2023/06/01 05:41:20;;;;;;;19.15;17.15;;;768.60;1971.20;;;;;;5031625;28;20025;-59
2023/06/01 05:43:45;;;;;;;17.48;15.77;;;768.00;1996.80;;;;;;5031604;28;20021;-59
2023/06/01 05:46:11;;;;;;;18.17;15.75;;;743.20;2022.40;;;;;;5031381;28;20041;-57
2023/06/01 05:48:37;;;;;;;19.05;16.55;;;819.20;1894.40;;;;;;5031192;28;20018;-57
2023/06/01 05:51:02;;;;;;;19.23;17.02;;;794.10;1894.40;;;;;;5031841;28;20080;-56
2023/06/01 05:53:29;;;;;;;19.17;17.35;;;768.40;1945.60;;;;;;5031574;28;20379;-56
2023/06/01 05:55:55;;;;;;;21.02;17.13;;;743.20;1996.80;;;;;;5031543;28;20030;-55
2023/06/01 05:58:20;;;;;;;20.00;18.00;;;742.90;2022.40;;;;;;5031378;28;20471;-59
2023/06/01 06:00:46;;;;;;;19.75;17.73;;;742.40;2073.60;;;;;;5030611;28;20025;-55
2023/06/01 06:03:12;;;;;;;19.42;17.52;;;742.70;2048.00;;;;;;5031320;28;20037;-55
2023/06/01 06:05:38;;;;;;;18.13;16.30;;;742.90;2073.60;;;;;;5030927;28;20395;-55
2023/06/01 06:08:04;;;;;;;17.23;15.55;;;742.50;2099.20;;;;;;5031419;28;20051;-55
2023/06/01 06:10:30;;;;;;;17.90;15.85;;;717.60;2099.20;;;;;;5031202;28;20486;-53
2023/06/01 06:12:55;;;;;;;16.95;15.18;;;768.80;1971.20;;;;;;5031034;28;20033;-55
2023/06/01 06:15:21;;;;;;;16.33;14.73;;;794.20;1920.00;;;;;;5030963;28;20109;-64
2023/06/01 06:17:47;;;;;;;16.23;14.70;;;768.50;1920.00;;;;;;5030972;28;20516;-55
2023/06/01 06:20:15;;;;;;;15.88;14.13;;;742.50;2048.00;;;;;;5030945;28;20453;-66
2023/06/01 06:22:41;;;;;;;14.65;12.85;;;742.80;2048.00;;;;;;5031072;28;20029;-64
2023/06/01 06:25:08;;;;;;;16.40;14.80;;;742.80;2048.00;;;;;;5030704;28;20043;-55
2023/06/01 06:27:34;;;;;;;16.38;14.75;;;742.90;2048.00;;;;;;5030799;28;19920;-55
2023/06/01 06:30:00;;;;;;;15.98;14.35;;;717.70;2073.60;;;;;;5030478;28;20029;-53
2023/06/01 06:32:26;;;;;;;18.02;14.98;;;;;;;;;;5030824;28;20040;-68
2023/06/01 06:34:52;;;;;;;17.02;15.32;;;;;;;;;;5030562;28;20040;-60
2023/06/01 06:37:18;;;;;;;15.75;14.15;;;;;;;;;;5030405;28;20028;-54
2023/06/01 06:39:45;;;;;;;16.73;14.48;;;;;;;;;;5030397;28;20407;-59
2023/06/01 06:42:11;;;;;;;17.05;15.10;;;;;;;;;;5030508;28;20100;-56
2023/06/01 06:44:37;;;;;;;17.45;15.70;;;;;;;;;;5029889;28;20014;-54
2023/06/01 06:47:03;;;;;;;16.67;14.95;;;;;;;;;;5030444;28;20033;-54
2023/06/01 06:49:29;;;;;;;17.33;15.63;;;;;;;;;;5030168;28;20030;-54
2023/06/01 06:51:55;;;;;;;15.38;13.90;;;;;;;;;;5030645;28;20033;-54
2023/06/01 06:54:22;;;;;;;18.60;13.68;;;;;;;;;;5029913;28;20707;-54
2023/06/01 06:56:48;;;;;;;14.95;13.45;;;;;;;;;;5025312;28;20030;-64
2023/06/01 06:59:14;;;;;;;15.93;13.27;;;;;;;;;;5012952;28;20460;-53
2023/06/01 07:01:40;;;;;;;16.45;12.82;;;;;;;;;;5012008;28;20037;-55
2023/06/01 07:04:07;;;;;;;15.93;14.15;;;;;;;;;;5022085;28;20484;-58
2023/06/01 07:06:33;;;;;;;16.70;14.73;;;;;;;;;;5014261;28;20053;-53
2023/06/01 07:09:00;;;;;;;14.27;12.90;;;;;;;;;;5026308;28;20467;-54
2023/06/01 07:11:26;;;;;;;17.08;14.10;;;;;;;;;;5029024;28;20467;-52
2023/06/01 07:13:53;;;;;;;14.55;13.07;;;;;;;;;;5028863;28;20480;-55
2023/06/01 07:16:19;;;;;;;13.48;12.18;;;845.30;1817.60;;;;;;5022050;28;20036;-68
2023/06/01 07:18:44;;;;;;;12.95;11.70;;;871.10;1715.20;;;;;;5009797;28;20386;-60
2023/06/01 07:21:10;;;;;;;14.70;13.20;;;;;;;;;;5025713;28;20037;-55
2023/06/01 07:23:36;;;;;;;14.13;12.52;;;;;;;;;;5029114;28;20045;-53
2023/06/01 07:26:02;;;;;;;13.27;11.90;;;871.10;1638.40;;;;;;5029414;28;20073;-55
2023/06/01 07:28:29;;;;;;;15.90;12.07;;;;;;;;;;5029126;28;20060;-59
2023/06/01 07:30:55;;;;;;;16.15;14.30;;;;;;;;;;5029753;28;20033;-63
2023/06/01 07:33:22;;;;;;;15.82;13.07;;;973.70;1459.20;;;;;;5016632;28;20083;-67
2023/06/01 07:35:52;;;;;;;15.10;13.18;;;922.50;1484.80;;;;;;5029056;28;20030;-55
2023/06/01 07:38:19;;;;;;;16.08;14.68;;;;;;;;;;5029649;28;20037;-67
2023/06/01 07:40:44;;;;;;;17.45;15.65;;;896.30;1587.20;;;;;;5028969;28;20049;-54
2023/06/01 07:43:10;;;;;;;18.10;16.27;;;922.40;1484.80;;;;;;5029383;28;20036;-56
2023/06/01 07:45:36;;;;;;;24.40;20.33;;;972.90;1408.00;;;;;;5015546;28;20037;-56
2023/06/01 07:48:02;;;;;;;18.05;16.25;;;972.80;1433.60;;;;;;5017549;28;20037;-54
2023/06/01 07:50:31;;;;;;;19.52;17.73;;;973.50;1433.60;;;;;;5015888;28;20350;-55
2023/06/01 07:52:57;;;;;;;18.63;16.35;;;998.70;1408.00;;;;;;5028656;28;20476;-57
2023/06/01 07:55:23;;;;;;;21.17;19.17;;;;;;;;;;5023634;28;20072;-55
2023/06/01 07:57:50;;;;;;;19.30;17.40;;;972.90;1408.00;;;;;;5013595;28;20030;-57
2023/06/01 08:00:17;;;;;;;19.40;17.50;;;972.90;1433.60;;;;;;5026360;28;20095;-55
2023/06/01 08:02:43;;;;;;;18.52;16.83;;;1024.20;1331.20;;;;;;5028882;28;20021;-67
2023/06/01 08:05:11;;;;;;;19.90;17.55;;;998.50;1356.80;;;;;;5029509;28;20028;-58
2023/06/01 08:07:37;;;;;;;18.08;16.67;;;998.80;1408.00;;;;;;5028600;28;20030;-54
2023/06/01 08:10:08;;;;;;;16.48;15.07;;;999.20;1356.80;;;;;;5016341;28;20030;-56
2023/06/01 08:12:35;;;;;;;15.82;14.32;;;973.60;1382.40;;;;;;5008783;28;20026;-63
2023/06/01 08:15:01;;;;;;;15.43;13.77;;;972.80;1408.00;;;;;;5008805;28;20051;-57
2023/06/01 08:17:27;;;;;;;16.90;15.15;;;921.60;1510.40;;;;;;5008686;28;20116;-67
2023/06/01 08:19:53;;;;;;;15.55;13.73;;;870.70;1561.60;;;;;;5022253;28;20146;-54
2023/06/01 08:22:20;;;;;;;17.10;15.30;;;845.60;1612.80;;;;;;5008302;28;20030;-66
2023/06/01 08:24:47;;;;;;;15.80;14.38;;;820.10;1612.80;;;;;;5023254;28;20479;-68
2023/06/01 08:27:23;;;;;;;15.40;14.00;;;819.70;1664.00;;;;;;5028211;28;20116;-55
2023/06/01 08:29:49;;;;;;;16.50;15.00;;;794.50;1740.80;;;;;;5028209;28;20034;-67
2023/06/01 08:32:16;;;;;;;17.65;15.85;;;;;;;;;;5028069;28;20053;-67
2023/06/01 08:34:46;;;;;;;14.85;11.88;;;;;;;;;;5026754;28;20371;-53
2023/06/01 08:37:15;;;;;;;15.25;13.90;;;794.20;1740.80;;;;;;5016013;28;20056;-59
2023/06/01 08:39:41;;;;;;;18.20;13.63;;;793.60;1792.00;;;;;;5024861;28;20507;-58
2023/06/01 08:42:31;;;;;;;13.48;11.65;;;743.30;1766.40;;;;;;5028260;28;20100;-59
2023/06/01 08:44:58;;;;;;;16.42;13.73;;;742.90;1817.60;;;;;;5027111;28;20079;-54
2023/06/01 08:47:27;;;;;;;13.27;10.57;;;768.10;1843.20;;;;;;5027948;28;20048;-53
2023/06/01 08:49:53;;;;;;;11.38;9.38;;;743.10;1792.00;;;;;;5012759;28;20515;-60
2023/06/01 08:52:21;;;;;;;17.10;9.95;;;717.20;1843.20;;;;;;5018103;28;20045;-55
2023/06/01 08:54:47;;;;;;;11.00;9.80;;;717.00;1894.40;;;;;;5026941;28;20025;-66
2023/06/01 08:57:13;;;;;;;16.38;11.82;;;716.90;1868.80;;;;;;5026102;28;20033;-53
2023/06/01 08:59:39;;;;;;;12.27;10.85;;;717.10;1868.80;;;;;;5028316;28;20594;-53
2023/06/01 09:02:06;;;;;;;14.85;13.43;;;717.00;1894.40;;;;;;5028552;28;20021;-54
2023/06/01 09:04:37;;;;;;;13.95;12.65;;;717.40;1920.00;;;;;;5028509;28;20051;-53
2023/06/01 09:07:03;;;;;;;13.90;12.50;;;717.60;1868.80;;;;;;5028246;28;20986;-53
2023/06/01 09:09:29;;;;;;;11.43;10.43;;;742.50;1920.00;;;;;;5028489;28;20034;-54
2023/06/01 09:12:17;;;;;;;12.65;10.20;;;742.50;1868.80;;;;;;5028343;28;20038;-53
2023/06/01 09:14:43;;;;;;;12.73;10.45;;;742.50;1843.20;;;;;;5028553;28;20030;-55
2023/06/01 09:17:21;;;;;;;13.38;12.00;;;742.40;1843.20;;;;;;5028390;28;20026;-59
2023/06/01 09:19:49;;;;;;;13.07;11.80;;;742.90;1868.80;;;;;;5028231;28;20053;-67
2023/06/01 09:22:15;;;;;;;13.77;12.35;;;743.20;1868.80;;;;;;5028048;28;20022;-59
2023/06/01 09:24:54;;;;;;;12.43;11.23;;;743.10;1843.20;;;;;;5028562;28;20028;-54
2023/06/01 09:27:20;;;;;;;12.35;11.07;;;743.10;1817.60;;;;;;5027948;28;20404;-54
2023/06/01 09:29:54;;;;;;;10.82;9.70;;;743.20;1843.20;;;;;;5028046;28;20026;-54
2023/06/01 09:32:22;;;;;;;9.90;9.00;;;742.40;1843.20;;;;;;5028349;28;20022;-66
2023/06/01 09:34:48;;;;;;;10.48;9.35;;;742.60;1843.20;;;;;;5030236;28;20109;-63
2023/06/01 09:37:15;;;;;;;9.75;8.55;;;742.90;1843.20;;;;;;5031426;28;20122;-55
2023/06/01 09:39:41;;;;;;;11.07;8.38;;;742.50;1843.20;;;;;;5031709;28;20060;-53
2023/06/01 09:42:07;;;;;;;10.93;8.25;;;717.70;1817.60;;;;;;5031537;28;20033;-55
2023/06/01 09:44:38;;;;;;;13.45;9.40;;;717.50;1843.20;;;;;;5031566;28;20037;-55
2023/06/01 09:47:05;;;;;;;12.38;9.20;;;742.60;1843.20;;;;;;5030911;28;20102;-54
2023/06/01 09:49:37;;;;;;;12.10;10.18;;;742.60;1817.60;;;;;;5031641;28;20025;-60
2023/06/01 09:52:06;;;;;;;17.15;9.15;;;742.70;1817.60;;;;;;5031462;28;20120;-54
2023/06/01 09:54:33;;;;;;;10.85;9.75;;;743.10;1843.20;;;;;;5031637;28;20029;-52
2023/06/01 09:57:01;;;;;;;12.93;10.70;;;742.60;1843.20;;;;;;5031817;28;20034;-53
2023/06/01 09:59:29;;;;;;;14.45;11.65;;;742.80;1843.20;;;;;;5030865;28;20022;-60
2023/06/01 10:01:57;;;;;;;11.63;10.25;;;743.10;1843.20;;;;;;5031117;28;20025;-53
2023/06/01 10:04:25;;;;;;;11.70;9.43;;;743.00;1843.20;;;;;;5030940;28;20025;-53
2023/06/01 10:06:55;;;;;;;10.27;9.38;;;743.20;1843.20;;;;;;5031449;28;20438;-58
2023/06/01 10:09:22;;;;;;;9.80;8.90;;;743.10;1817.60;;;;;;5030853;28;20029;-54
2023/06/01 10:11:49;;;;;;;10.27;9.27;;;743.20;1817.60;;;;;;5031262;28;20480;-60
2023/06/01 10:14:16;;;;;;;12.13;10.65;;;743.30;1868.80;;;;;;5024328;28;20429;-65
2023/06/01 10:16:43;;;;;;;11.85;10.45;;;743.10;1792.00;;;;;;5025390;28;20080;-54
2023/06/01 10:19:11;;;;;;;11.52;10.40;;;742.60;1920.00;;;;;;5030867;28;20472;-55
2023/06/01 10:21:37;;;;;;;10.65;9.65;;;742.70;1920.00;;;;;;5030519;28;20498;-55
2023/06/01 10:24:07;;;;;;;11.35;10.13;;;742.50;1945.60;;;;;;5030960;28;20460;-55
2023/06/01 10:27:05;;;;;;;10.52;9.40;;;742.70;1868.80;;;;;;5030928;28;20030;-54
2023/06/01 10:29:31;;;;;;;11.02;9.93;;;742.40;1920.00;;;;;;5028902;28;20037;-54
2023/06/01 10:32:00;;;;;;;15.50;10.43;;;717.40;1920.00;;;;;;5030910;28;20080;-54
2023/06/01 10:34:42;;;;;;;10.50;9.40;;;717.10;1971.20;;;;;;5030412;28;20467;-54
2023/06/01 10:37:08;;;;;;;11.73;9.45;;;692.10;1945.60;;;;;;5030384;28;20041;-65
2023/06/01 10:39:34;;;;;;;11.32;9.73;;;716.80;1996.80;;;;;;5030186;28;20042;-55
2023/06/01 10:42:12;;;;;;;11.82;10.43;;;691.80;1971.20;;;;;;5031018;28;20032;-66
2023/06/01 10:44:38;;;;;;;13.73;10.18;;;691.80;1996.80;;;;;;5018235;28;20021;-55
2023/06/01 10:47:10;;;;;;;10.90;9.77;;;691.80;2048.00;;;;;;5029345;28;20033;-55
2023/06/01 10:50:01;;;;;;;10.55;9.55;;;691.90;1996.80;;;;;;5030154;28;20025;-55
2023/06/01 10:52:30;;;;;;;11.70;9.23;;;691.90;2022.40;;;;;;5030023;28;20032;-54
2023/06/01 10:55:15;;;;;;;11.80;10.05;;;691.60;2022.40;;;;;;5030352;28;20547;-54
2023/06/01 10:57:45;;;;;;;12.10;9.43;;;691.70;1996.80;;;;;;5030148;28;20022;-55
2023/06/01 11:00:26;;;;;;;11.88;10.18;;;691.30;2022.40;;;;;;5030409;28;20027;-55
2023/06/01 11:03:02;;;;;;;10.73;9.77;;;691.30;2048.00;;;;;;5030512;28;20774;-55
2023/06/01 11:05:52;;;;;;;11.52;9.55;;;666.50;2073.60;;;;;;5029648;28;20037;-54
2023/06/01 11:08:25;;;;;;;12.55;10.25;;;665.90;2099.20;;;;;;5030253;28;20483;-56
2023/06/01 11:10:54;;;;;;;13.57;11.13;;;665.70;2124.80;;;;;;5030033;28;20054;-63
2023/06/01 11:13:31;;;;;;;14.15;10.63;;;666.00;2176.00;;;;;;5029483;28;20033;-64
2023/06/01 11:16:21;;;;;;;11.90;9.93;;;666.00;2099.20;;;;;;5029632;28;20034;-57
2023/06/01 11:19:02;;;;;;;12.88;10.60;;;665.70;2099.20;;;;;;5029177;28;20030;-56
2023/06/01 11:21:33;;;;;;;13.25;11.02;;;665.60;2099.20;;;;;;5016350;28;20045;-61
2023/06/01 11:24:01;;;;;;;11.57;10.45;;;665.60;2150.40;;;;;;5029397;28;20033;-68
2023/06/01 11:26:51;;;;;;;12.82;10.57;;;665.60;2176.00;;;;;;5029610;28;20041;-57
2023/06/01 11:29:23;;;;;;;11.48;10.32;;;640.90;2176.00;;;;;;5028819;28;20391;-58
2023/06/01 11:31:57;;;;;;;16.33;12.73;;;640.90;2176.00;;;;;;5029911;28;20033;-55
2023/06/01 11:34:44;;;;;;;17.05;12.63;;;640.90;2278.40;;;;;;5029162;28;20029;-56
2023/06/01 11:37:14;;;;;;;14.20;12.80;;;640.60;2355.20;;;;;;5029140;28;20121;-54
2023/06/01 11:39:40;;;;;;;15.65;11.93;;;640.60;2432.00;;;;;;5009486;28;20064;-54
2023/06/01 11:42:13;;;;;;;14.30;12.98;;;640.50;2432.00;;;;;;5011139;28;20125;-53
2023/06/01 11:44:41;;;;;;;14.43;12.82;;;640.50;2432.00;;;;;;5022091;28;20025;-54
2023/06/01 11:47:09;;;;;;;15.50;13.80;;;;;;;;;;5009217;28;20052;-65
2023/06/01 11:49:46;;;;;;;19.33;13.75;;;;;;;;;;5009071;28;20033;-62
2023/06/01 11:52:13;;;;;;;14.43;12.95;;;;;;;;;;5009546;28;20033;-53
2023/06/01 11:54:39;;;;;;;16.98;13.68;;;;;;;;;;5012350;28;20495;-53
2023/06/01 11:57:05;;;;;;;14.15;12.52;;;;;;;;;;5026892;28;20475;-54
2023/06/01 11:59:45;;;;;;;14.32;12.93;;;;;;;;;;5029070;28;20025;-60
2023/06/01 12:02:27;;;;;;;15.63;13.20;;;;;;;;;;5027949;28;20059;-54
2023/06/01 12:05:08;;;;;;;16.03;12.67;;;;;;;;;;5028417;28;20101;-55
2023/06/01 12:07:44;;;;;;;14.85;13.35;;;;;;;;;;5026234;28;20037;-55
2023/06/01 12:10:14;;;;;;;14.65;12.77;;;;;;;;;;5029500;28;20029;-58
2023/06/01 12:12:41;;;;;;;15.65;14.05;;;;;;;;;;5015016;28;20364;-54
2023/06/01 12:15:08;;;;;;;14.13;12.63;;;;;;;;;;5029230;28;20030;-54
2023/06/01 12:17:50;;;;;;;12.93;11.63;;;;;;;;;;5028820;28;20053;-55
2023/06/01 12:20:32;;;;;;;13.32;11.30;;;;;;;;;;5025887;28;20368;-54
2023/06/01 12:22:59;;;;;;;16.50;13.75;;;;;;;;;;5016042;28;20034;-56